createdAt,value
2023-05-22T00:01:09.452Z,11.15
2023-05-22T00:03:42.271Z,10.35
2023-05-22T00:06:15.285Z,9.90
2023-05-22T00:08:49.574Z,10.48
2023-05-22T00:11:23.374Z,10.75
2023-05-22T00:13:56.162Z,10.98
2023-05-22T00:16:29.090Z,9.55
2023-05-22T00:19:01.986Z,10.25
2023-05-22T00:21:37.589Z,10.43
2023-05-22T00:24:11.977Z,10.20
2023-05-22T00:26:44.829Z,10.07
2023-05-22T00:29:17.696Z,10.40
2023-05-22T00:31:50.758Z,10.05
2023-05-22T00:34:23.747Z,11.05
2023-05-22T00:36:56.778Z,10.55
2023-05-22T00:39:31.122Z,10.02
2023-05-22T00:42:03.969Z,11.25
2023-05-22T00:44:36.749Z,10.38
2023-05-22T00:47:09.877Z,9.65
2023-05-22T00:49:44.041Z,9.73
2023-05-22T00:52:18.098Z,10.18
2023-05-22T00:54:54.867Z,11.18
2023-05-22T00:57:28.927Z,11.38
2023-05-22T01:00:02.304Z,10.43
2023-05-22T01:02:37.195Z,10.55
2023-05-22T01:05:13.464Z,11.05
2023-05-22T01:07:47.009Z,10.27
2023-05-22T01:10:21.445Z,11.07
2023-05-22T01:13:02.943Z,10.80
2023-05-22T01:15:44.492Z,11.35
2023-05-22T01:18:25.084Z,10.65
2023-05-22T01:21:10.261Z,10.47
2023-05-22T01:24:31.946Z,11.70
2023-05-22T01:27:38.981Z,9.35
2023-05-22T01:30:41.691Z,10.48
2023-05-22T01:33:18.255Z,10.48
2023-05-22T01:35:54.080Z,11.52
2023-05-22T01:38:27.152Z,11.48
2023-05-22T01:41:00.452Z,9.90
2023-05-22T01:43:33.462Z,10.55
2023-05-22T01:46:07.078Z,10.48
2023-05-22T01:48:41.444Z,10.40
2023-05-22T01:51:20.156Z,10.20
2023-05-22T01:53:59.082Z,10.90
2023-05-22T01:56:38.069Z,9.82
2023-05-22T01:59:16.005Z,11.13
2023-05-22T02:01:51.836Z,10.55
2023-05-22T02:04:28.972Z,12.52
2023-05-22T02:07:03.988Z,9.85
2023-05-22T02:09:38.459Z,9.57
2023-05-22T02:12:12.452Z,10.45
2023-05-22T02:14:46.005Z,10.20
2023-05-22T02:17:19.091Z,10.63
2023-05-22T02:19:53.288Z,10.38
2023-05-22T02:22:26.727Z,11.13
2023-05-22T02:24:59.743Z,11.00
2023-05-22T02:27:32.985Z,11.27
2023-05-22T02:30:07.616Z,10.45
2023-05-22T02:32:41.149Z,10.60
2023-05-22T02:35:15.977Z,10.82
2023-05-22T02:37:49.023Z,10.77
2023-05-22T02:40:21.948Z,9.77
2023-05-22T02:42:56.287Z,10.48
2023-05-22T02:45:30.648Z,10.57
2023-05-22T02:48:04.015Z,10.77
2023-05-22T02:50:39.684Z,11.02
2023-05-22T02:53:14.422Z,10.38
2023-05-22T02:55:48.409Z,11.57
2023-05-22T02:58:23.252Z,11.40
2023-05-22T03:00:57.437Z,10.93
2023-05-22T03:03:31.466Z,12.30
2023-05-22T03:06:06.335Z,11.20
2023-05-22T03:08:43.476Z,11.20
2023-05-22T03:11:16.294Z,12.35
2023-05-22T03:13:49.157Z,11.55
2023-05-22T03:16:22.132Z,11.38
2023-05-22T03:19:08.708Z,11.45
2023-05-22T03:21:44.508Z,11.00
2023-05-22T03:24:17.737Z,11.43
2023-05-22T03:26:50.538Z,11.35
2023-05-22T03:29:30.169Z,10.60
2023-05-22T03:32:04.549Z,11.18
2023-05-22T03:34:37.825Z,11.27
2023-05-22T03:37:15.061Z,11.15
2023-05-22T03:39:48.220Z,11.00
2023-05-22T03:42:31.952Z,11.35
2023-05-22T03:45:06.050Z,12.45
2023-05-22T03:47:39.291Z,11.27
2023-05-22T03:50:12.493Z,11.38
2023-05-22T03:52:47.374Z,11.18
2023-05-22T03:55:20.242Z,12.48
2023-05-22T03:57:53.144Z,11.27
2023-05-22T04:00:26.963Z,13.82
2023-05-22T04:03:00.216Z,12.13
2023-05-22T04:05:33.538Z,12.23
2023-05-22T04:08:07.924Z,12.38
2023-05-22T04:10:41.073Z,12.18
2023-05-22T04:13:14.797Z,11.98
2023-05-22T04:15:47.818Z,12.02
2023-05-22T04:18:20.746Z,11.95
2023-05-22T04:20:53.616Z,11.32
2023-05-22T04:23:27.933Z,10.73
2023-05-22T04:26:02.396Z,11.38
2023-05-22T04:28:35.276Z,11.27
2023-05-22T04:31:08.251Z,11.60
2023-05-22T04:33:42.070Z,11.15
2023-05-22T04:36:14.969Z,11.35
2023-05-22T04:38:50.316Z,11.25
2023-05-22T04:41:26.467Z,10.98
2023-05-22T04:44:00.550Z,11.75
2023-05-22T04:46:34.642Z,12.02
2023-05-22T04:49:08.551Z,11.25
2023-05-22T04:51:41.476Z,11.55
2023-05-22T04:54:15.827Z,11.68
2023-05-22T04:56:48.660Z,11.90
2023-05-22T04:59:23.416Z,12.45
2023-05-22T05:01:56.223Z,11.30
2023-05-22T05:04:30.800Z,11.68
2023-05-22T05:07:05.110Z,12.20
2023-05-22T05:09:39.687Z,12.20
2023-05-22T05:12:12.596Z,11.18
2023-05-22T05:14:45.540Z,12.23
2023-05-22T05:17:22.508Z,12.55
2023-05-22T05:19:55.592Z,12.18
2023-05-22T05:22:29.410Z,11.75
2023-05-22T05:25:05.609Z,11.65
2023-05-22T05:27:38.954Z,11.77
2023-05-22T05:30:12.196Z,12.13
2023-05-22T05:33:09.833Z,12.20
2023-05-22T05:35:53.736Z,13.07
2023-05-22T05:38:29.947Z,12.65
2023-05-22T05:41:06.190Z,13.32
2023-05-22T05:43:45.545Z,12.57
2023-05-22T05:46:30.776Z,13.18
2023-05-22T05:49:10.133Z,13.85
2023-05-22T05:51:44.243Z,13.40
2023-05-22T05:54:17.938Z,12.88
2023-05-22T05:56:53.508Z,13.48
2023-05-22T05:59:26.580Z,13.70
2023-05-22T06:02:06.138Z,12.68
2023-05-22T06:04:39.991Z,12.38
2023-05-22T06:07:13.694Z,12.43
2023-05-22T06:09:51.645Z,11.90
2023-05-22T06:12:42.722Z,13.43
2023-05-22T06:15:15.687Z,12.38
2023-05-22T06:17:48.903Z,13.13
2023-05-22T06:20:22.380Z,12.88
2023-05-22T06:22:55.606Z,13.10
2023-05-22T06:25:30.118Z,12.65
2023-05-22T06:28:06.085Z,12.00
2023-05-22T06:30:43.749Z,12.43
2023-05-22T06:33:21.403Z,12.07
2023-05-22T06:35:55.482Z,11.60
2023-05-22T06:38:28.760Z,11.50
2023-05-22T06:41:01.660Z,13.00
2023-05-22T06:43:36.117Z,12.80
2023-05-22T06:46:18.445Z,11.77
2023-05-22T06:48:57.244Z,11.55
2023-05-22T06:51:32.677Z,12.05
2023-05-22T06:54:13.816Z,11.57
2023-05-22T06:56:49.311Z,11.90
2023-05-22T06:59:24.944Z,10.88
2023-05-22T07:02:18.047Z,10.88
2023-05-22T07:05:09.877Z,10.30
2023-05-22T07:07:53.886Z,10.85
2023-05-22T07:10:27.832Z,10.30
2023-05-22T07:13:02.833Z,10.25
2023-05-22T07:15:38.544Z,8.68
2023-05-22T07:18:13.654Z,9.30
2023-05-22T07:20:47.956Z,9.13
2023-05-22T07:23:26.207Z,9.55
2023-05-22T07:25:59.462Z,8.73
2023-05-22T07:28:38.594Z,9.57
2023-05-22T07:31:19.661Z,8.75
2023-05-22T07:33:54.037Z,8.55
2023-05-22T07:36:27.467Z,9.13
2023-05-22T07:39:00.357Z,9.30
2023-05-22T07:41:33.223Z,9.15
2023-05-22T07:44:06.472Z,8.40
2023-05-22T07:46:44.857Z,8.93
2023-05-22T07:49:23.438Z,8.18
2023-05-22T07:51:57.103Z,8.57
2023-05-22T07:54:31.840Z,8.50
2023-05-22T07:57:05.035Z,8.98
2023-05-22T07:59:44.079Z,8.95
2023-05-22T08:02:18.639Z,8.85
2023-05-22T08:04:51.688Z,8.10
2023-05-22T08:07:24.584Z,7.70
2023-05-22T08:09:57.402Z,8.02
2023-05-22T08:12:30.267Z,7.93
2023-05-22T08:15:03.742Z,7.97
2023-05-22T08:17:37.984Z,7.47
2023-05-22T08:20:13.137Z,8.18
2023-05-22T08:22:46.536Z,7.88
2023-05-22T08:25:19.564Z,8.10
2023-05-22T08:27:52.489Z,7.43
2023-05-22T08:30:25.464Z,7.53
2023-05-22T08:32:59.914Z,7.90
2023-05-22T08:35:32.894Z,7.18
2023-05-22T08:38:05.767Z,8.60
2023-05-22T08:40:40.890Z,7.65
2023-05-22T08:43:15.504Z,7.68
2023-05-22T08:45:52.580Z,7.95
2023-05-22T08:48:31.132Z,7.75
2023-05-22T08:51:06.006Z,8.02
2023-05-22T08:53:41.668Z,8.13
2023-05-22T08:56:14.909Z,7.97
2023-05-22T08:58:47.907Z,7.43
2023-05-22T09:01:21.397Z,7.63
2023-05-22T09:03:56.973Z,7.25
2023-05-22T09:06:30.192Z,7.00
2023-05-22T09:09:03.329Z,7.60
2023-05-22T09:11:36.701Z,6.85
2023-05-22T09:14:09.803Z,7.03
2023-05-22T09:16:47.118Z,7.07
2023-05-22T09:19:21.807Z,7.30
2023-05-22T09:22:03.265Z,6.75
2023-05-22T09:24:39.870Z,7.43
2023-05-22T09:27:13.157Z,8.18
2023-05-22T09:29:50.336Z,7.40
2023-05-22T09:32:23.542Z,7.60
2023-05-22T09:35:03.515Z,7.32
2023-05-22T09:37:37.481Z,6.82
2023-05-22T09:40:14.194Z,7.20
2023-05-22T09:42:46.998Z,7.15
2023-05-22T09:45:22.436Z,7.03
2023-05-22T09:47:55.399Z,7.25
2023-05-22T09:50:29.678Z,7.53
2023-05-22T09:53:03.964Z,7.00
2023-05-22T09:55:38.200Z,7.38
2023-05-22T09:58:14.813Z,7.35
2023-05-22T10:00:49.972Z,7.43
2023-05-22T10:03:25.037Z,7.15
2023-05-22T10:06:01.308Z,7.40
2023-05-22T10:08:40.835Z,7.00
2023-05-22T10:11:13.958Z,7.05
2023-05-22T10:13:47.537Z,6.78
2023-05-22T10:16:21.190Z,7.13
2023-05-22T10:18:55.354Z,7.32
2023-05-22T10:21:31.968Z,6.25
2023-05-22T10:24:07.045Z,6.60
2023-05-22T10:26:40.178Z,6.18
2023-05-22T10:29:17.877Z,5.93
2023-05-22T10:34:44.622Z,5.22
2023-05-22T10:37:30.941Z,5.32
2023-05-22T10:40:08.180Z,5.60
2023-05-22T10:42:41.538Z,6.03
2023-05-22T10:45:14.858Z,6.15
2023-05-22T10:47:47.785Z,6.53
2023-05-22T10:50:20.673Z,6.35
2023-05-22T10:53:20.107Z,5.55
2023-05-22T10:55:54.255Z,4.85
2023-05-22T10:58:28.502Z,5.93
2023-05-22T11:01:15.033Z,5.65
2023-05-22T11:03:55.837Z,5.45
2023-05-22T11:06:36.524Z,5.30
2023-05-22T11:09:31.008Z,6.05
2023-05-22T11:12:16.387Z,6.40
2023-05-22T11:14:51.676Z,6.90
2023-05-22T11:17:25.985Z,6.25
2023-05-22T11:20:00.934Z,7.63
2023-05-22T11:22:35.973Z,7.15
2023-05-22T11:25:12.097Z,7.72
2023-05-22T11:27:45.742Z,6.82
2023-05-22T11:30:18.912Z,6.32
2023-05-22T11:32:52.053Z,6.18
2023-05-22T11:35:25.910Z,6.13
2023-05-22T11:37:58.924Z,6.15
2023-05-22T11:40:33.173Z,6.63
2023-05-22T11:43:06.097Z,6.25
2023-05-22T11:45:38.927Z,5.97
2023-05-22T11:48:14.651Z,6.07
2023-05-22T11:50:48.553Z,5.95
2023-05-22T11:53:21.949Z,5.85
2023-05-22T11:55:56.240Z,6.43
2023-05-22T11:58:29.713Z,5.57
2023-05-22T12:01:03.580Z,5.88
2023-05-22T12:03:36.546Z,5.43
2023-05-22T12:06:10.594Z,5.63
2023-05-22T12:08:43.870Z,6.40
2023-05-22T12:11:18.241Z,5.60
2023-05-22T12:14:00.988Z,5.78
2023-05-22T12:16:37.160Z,6.10
2023-05-22T12:19:11.310Z,5.82
2023-05-22T12:21:45.832Z,5.32
2023-05-22T12:24:23.274Z,5.30
2023-05-22T12:26:57.946Z,5.30
2023-05-22T12:29:30.822Z,5.05
2023-05-22T12:32:04.765Z,5.55
2023-05-22T12:34:44.541Z,5.40
2023-05-22T12:37:21.580Z,5.10
2023-05-22T12:39:55.726Z,5.18
2023-05-22T12:42:30.288Z,5.32
2023-05-22T12:45:03.213Z,5.28
2023-05-22T12:47:36.077Z,5.25
2023-05-22T12:50:10.270Z,4.72
2023-05-22T12:52:43.285Z,5.13
2023-05-22T12:55:16.276Z,5.25
2023-05-22T12:57:50.808Z,5.40
2023-05-22T13:00:23.942Z,5.13
2023-05-22T13:02:57.104Z,5.18
2023-05-22T13:05:30.065Z,4.85
2023-05-22T13:08:03.025Z,4.80
2023-05-22T13:10:36.413Z,5.22
2023-05-22T13:13:10.711Z,4.55
2023-05-22T13:15:43.583Z,4.40
2023-05-22T13:18:17.439Z,4.65
2023-05-22T13:20:50.340Z,4.38
2023-05-22T13:23:23.394Z,5.22
2023-05-22T13:25:56.480Z,5.20
2023-05-22T13:28:31.025Z,5.10
2023-05-22T13:31:04.159Z,5.35
2023-05-22T13:33:40.311Z,4.72
2023-05-22T13:36:15.702Z,4.57
2023-05-22T13:38:48.606Z,4.43
2023-05-22T13:41:21.804Z,4.43
2023-05-22T13:43:57.700Z,4.68
2023-05-22T13:46:30.872Z,4.45
2023-05-22T13:49:03.894Z,4.47
2023-05-22T13:51:37.911Z,5.00
2023-05-22T13:54:11.181Z,4.22
2023-05-22T13:56:44.082Z,4.70
2023-05-22T13:59:18.399Z,4.60
2023-05-22T14:01:51.347Z,4.97
2023-05-22T14:04:24.254Z,4.38
2023-05-22T14:06:57.036Z,5.25
2023-05-22T14:09:31.533Z,4.70
2023-05-22T14:12:05.669Z,4.70
2023-05-22T14:14:39.867Z,4.97
2023-05-22T14:17:12.811Z,4.82
2023-05-22T14:19:45.733Z,4.63
2023-05-22T14:22:18.776Z,4.88
2023-05-22T14:24:51.636Z,4.50
2023-05-22T14:27:24.539Z,4.70
2023-05-22T14:29:58.702Z,4.32
2023-05-22T14:32:31.551Z,4.82
2023-05-22T14:35:04.608Z,4.82
2023-05-22T14:37:37.857Z,4.95
2023-05-22T14:40:11.733Z,4.75
2023-05-22T14:42:44.512Z,4.55
2023-05-22T14:45:18.636Z,4.70
2023-05-22T14:47:51.486Z,4.55
2023-05-22T14:50:25.063Z,4.53
2023-05-22T14:52:58.428Z,4.22
2023-05-22T14:55:31.869Z,5.20
2023-05-22T14:58:04.610Z,4.38
2023-05-22T15:00:38.893Z,4.30
2023-05-22T15:03:12.933Z,4.50
2023-05-22T15:05:45.914Z,4.53
2023-05-22T15:08:20.593Z,4.47
2023-05-22T15:10:53.583Z,4.85
2023-05-22T15:13:26.465Z,4.30
2023-05-22T15:16:00.650Z,4.38
2023-05-22T15:18:33.495Z,5.07
2023-05-22T15:21:06.473Z,4.68
2023-05-22T15:23:39.286Z,4.85
2023-05-22T15:26:12.362Z,4.57
2023-05-22T15:28:45.184Z,5.03
2023-05-22T15:31:19.864Z,4.30
2023-05-22T15:33:52.639Z,4.70
2023-05-22T15:36:25.422Z,4.50
2023-05-22T15:38:58.226Z,4.45
2023-05-22T15:41:31.011Z,4.82
2023-05-22T15:44:03.777Z,4.88
2023-05-22T15:46:38.997Z,4.70
2023-05-22T15:49:11.860Z,4.97
2023-05-22T15:51:44.681Z,4.70
2023-05-22T15:54:17.523Z,4.53
2023-05-22T15:56:50.325Z,4.32
2023-05-22T15:59:23.397Z,4.88
2023-05-22T16:01:57.930Z,4.93
2023-05-22T16:04:31.205Z,5.05
2023-05-22T16:07:04.076Z,4.93
2023-05-22T16:09:36.875Z,4.82
2023-05-22T16:12:10.482Z,4.82
2023-05-22T16:14:43.301Z,5.38
2023-05-22T16:17:17.573Z,5.00
2023-05-22T16:20:11.961Z,5.22
2023-05-22T16:22:48.889Z,5.00
2023-05-22T16:26:03.930Z,5.13
2023-05-22T16:28:37.165Z,5.43
2023-05-22T16:31:10.214Z,5.25
2023-05-22T16:33:44.636Z,5.45
2023-05-22T16:36:17.900Z,5.47
2023-05-22T16:38:50.837Z,4.75
2023-05-22T16:41:23.920Z,5.57
2023-05-22T16:43:57.074Z,5.75
2023-05-22T16:46:30.124Z,4.93
2023-05-22T16:49:04.411Z,5.15
2023-05-22T16:51:37.329Z,5.35
2023-05-22T16:54:10.104Z,5.95
2023-05-22T16:56:42.901Z,5.38
2023-05-22T16:59:15.868Z,5.10
2023-05-22T17:01:49.021Z,5.38
2023-05-22T17:04:23.166Z,5.55
2023-05-22T17:06:56.874Z,5.40
2023-05-22T17:09:29.937Z,5.60
2023-05-22T17:12:03.008Z,5.35
2023-05-22T17:14:35.971Z,5.65
2023-05-22T17:17:09.390Z,5.60
2023-05-22T17:19:43.610Z,6.13
2023-05-22T17:22:16.522Z,5.35
2023-05-22T17:24:49.467Z,5.28
2023-05-22T17:27:34.838Z,5.97
2023-05-22T17:30:09.659Z,5.88
2023-05-22T17:32:42.531Z,5.55
2023-05-22T17:35:16.815Z,5.63
2023-05-22T17:37:49.606Z,6.18
2023-05-22T17:40:32.490Z,5.80
2023-05-22T17:43:09.230Z,5.88
2023-05-22T17:45:44.404Z,6.05
2023-05-22T17:48:21.433Z,5.55
2023-05-22T17:50:55.769Z,6.55
2023-05-22T17:53:32.129Z,6.10
2023-05-22T17:56:05.729Z,5.68
2023-05-22T17:58:38.555Z,6.32
2023-05-22T18:01:11.388Z,6.38
2023-05-22T18:03:44.400Z,6.05
2023-05-22T18:06:18.699Z,6.05
2023-05-22T18:08:51.710Z,5.93
2023-05-22T18:11:24.556Z,6.22
2023-05-22T18:13:57.401Z,6.40
2023-05-22T18:16:30.333Z,7.03
2023-05-22T18:19:03.763Z,6.78
2023-05-22T18:21:37.978Z,6.70
2023-05-22T18:24:10.789Z,7.18
2023-05-22T18:26:43.640Z,6.70
2023-05-22T18:29:16.454Z,6.53
2023-05-22T18:31:49.530Z,7.13
2023-05-22T18:34:22.301Z,7.88
2023-05-22T18:36:57.466Z,7.60
2023-05-22T18:39:30.565Z,7.28
2023-05-22T18:42:03.492Z,8.45
2023-05-22T18:44:36.318Z,7.68
2023-05-22T18:47:09.342Z,7.80
2023-05-22T18:49:42.603Z,7.75
2023-05-22T18:52:16.819Z,7.70
2023-05-22T18:54:49.729Z,7.47
2023-05-22T18:57:22.750Z,7.82
2023-05-22T18:59:55.849Z,7.65
2023-05-22T19:02:28.747Z,7.85
2023-05-22T19:05:01.755Z,7.60
2023-05-22T19:07:36.114Z,7.65
2023-05-22T19:10:10.185Z,7.95
2023-05-22T19:12:43.044Z,7.80
2023-05-22T19:15:15.956Z,8.25
2023-05-22T19:17:48.937Z,7.97
2023-05-22T19:20:23.995Z,8.05
2023-05-22T19:22:58.487Z,7.82
2023-05-22T19:25:31.967Z,8.43
2023-05-22T19:28:05.518Z,8.02
2023-05-22T19:30:38.386Z,7.25
2023-05-22T19:33:12.012Z,7.93
2023-05-22T19:35:45.150Z,7.85
2023-05-22T19:38:22.266Z,7.55
2023-05-22T19:40:55.299Z,7.05
2023-05-22T19:43:31.299Z,7.78
2023-05-22T19:46:08.548Z,7.18
2023-05-22T19:48:41.943Z,8.18
2023-05-22T19:51:14.907Z,7.40
2023-05-22T19:53:49.268Z,7.18
2023-05-22T19:56:22.363Z,7.47
2023-05-22T19:58:55.546Z,7.75
2023-05-22T20:01:28.703Z,7.03
2023-05-22T20:04:01.720Z,7.55
2023-05-22T20:06:35.066Z,6.90
2023-05-22T20:09:09.286Z,7.30
2023-05-22T20:11:42.536Z,7.47
2023-05-22T20:14:15.412Z,7.40
2023-05-22T20:16:48.505Z,7.28
2023-05-22T20:19:21.827Z,7.40
2023-05-22T20:21:56.340Z,7.63
2023-05-22T20:24:31.024Z,7.47
2023-05-22T20:27:06.285Z,7.10
2023-05-22T20:29:39.288Z,7.28
2023-05-22T20:32:12.700Z,6.90
2023-05-22T20:34:46.493Z,6.60
2023-05-22T20:37:20.919Z,7.70
2023-05-22T20:39:55.259Z,7.63
2023-05-22T20:42:28.729Z,7.25
2023-05-22T20:45:01.557Z,8.13
2023-05-22T20:47:35.837Z,8.32
2023-05-22T20:50:10.039Z,9.05
2023-05-22T20:52:45.804Z,8.20
2023-05-22T20:55:20.032Z,8.50
2023-05-22T20:57:53.109Z,9.15
2023-05-22T21:00:26.104Z,9.13
2023-05-22T21:03:01.180Z,10.52
2023-05-22T21:05:34.057Z,8.82
2023-05-22T21:08:06.938Z,8.95
2023-05-22T21:10:41.390Z,9.05
2023-05-22T21:13:14.448Z,9.18
2023-05-22T21:15:47.264Z,8.52
2023-05-22T21:18:20.276Z,9.05
2023-05-22T21:20:53.084Z,9.68
2023-05-22T21:23:26.004Z,9.38
2023-05-22T21:26:00.287Z,9.30
2023-05-22T21:28:33.275Z,8.75
2023-05-22T21:31:06.763Z,9.40
2023-05-22T21:33:39.746Z,9.20
2023-05-22T21:36:12.553Z,9.45
2023-05-22T21:38:45.546Z,8.77
2023-05-22T21:41:19.875Z,8.88
2023-05-22T21:43:52.736Z,9.15
2023-05-22T21:46:25.602Z,10.15
2023-05-22T21:48:58.701Z,9.07
2023-05-22T21:51:32.044Z,9.18
2023-05-22T21:54:05.113Z,9.40
2023-05-22T21:56:39.560Z,9.95
2023-05-22T21:59:12.500Z,8.23
2023-05-22T22:01:45.453Z,8.40
2023-05-22T22:04:18.232Z,8.57
2023-05-22T22:06:51.069Z,9.48
2023-05-22T22:09:23.896Z,9.65
2023-05-22T22:11:58.026Z,9.88
2023-05-22T22:14:31.231Z,9.05
2023-05-22T22:17:06.024Z,8.80
2023-05-22T22:19:40.205Z,9.75
2023-05-22T22:22:13.459Z,9.25
2023-05-22T22:24:48.139Z,9.07
2023-05-22T22:27:22.467Z,8.77
2023-05-22T22:29:55.344Z,8.93
2023-05-22T22:32:28.190Z,9.05
2023-05-22T22:35:01.048Z,9.35
2023-05-22T22:37:33.940Z,9.32
2023-05-22T22:40:07.948Z,9.70
2023-05-22T22:42:42.388Z,9.32
2023-05-22T22:45:15.578Z,9.68
2023-05-22T22:47:48.479Z,10.35
2023-05-22T22:50:21.511Z,9.55
2023-05-22T22:52:54.451Z,10.18
2023-05-22T22:55:27.456Z,9.27
2023-05-22T22:58:02.527Z,9.13
2023-05-22T23:00:36.633Z,9.95
2023-05-22T23:03:09.614Z,10.25
2023-05-22T23:05:42.805Z,9.45
2023-05-22T23:08:15.963Z,9.55
2023-05-22T23:10:48.804Z,9.85
2023-05-22T23:13:23.115Z,10.25
2023-05-22T23:15:56.093Z,9.80
2023-05-22T23:18:28.952Z,9.88
2023-05-22T23:21:01.766Z,9.43
2023-05-22T23:23:34.577Z,9.52
2023-05-22T23:26:10.654Z,9.13
2023-05-22T23:28:44.824Z,8.93
2023-05-22T23:31:17.762Z,9.32
2023-05-22T23:33:50.638Z,8.52
2023-05-22T23:36:23.632Z,8.57
2023-05-22T23:38:56.481Z,8.82
2023-05-22T23:41:29.451Z,8.45
2023-05-22T23:44:03.691Z,8.52
2023-05-22T23:46:37.727Z,8.43
2023-05-22T23:49:10.613Z,8.77
2023-05-22T23:51:43.479Z,7.53
2023-05-22T23:54:16.893Z,9.05
2023-05-22T23:56:49.748Z,8.90
2023-05-22T23:59:23.958Z,8.90
